createdAt,value
2022-12-16T00:01:07.923Z,3.50
2022-12-16T00:05:13.247Z,3.67
2022-12-16T00:09:16.558Z,3.00
2022-12-16T00:13:19.683Z,2.85
2022-12-16T00:17:23.897Z,3.15
2022-12-16T00:21:28.847Z,2.95
2022-12-16T00:25:32.158Z,3.13
2022-12-16T00:29:35.220Z,3.20
2022-12-16T00:33:38.311Z,2.53
2022-12-16T00:37:43.119Z,2.65
2022-12-16T00:41:47.840Z,3.03
2022-12-16T00:45:51.911Z,3.25
2022-12-16T00:49:55.562Z,2.63
2022-12-16T00:54:00.172Z,3.10
2022-12-16T00:58:03.395Z,2.67
2022-12-16T01:02:07.339Z,3.08
2022-12-16T01:06:13.114Z,3.22
2022-12-16T01:10:17.679Z,3.47
2022-12-16T01:14:21.561Z,3.30
2022-12-16T01:18:24.878Z,3.10
2022-12-16T01:22:28.433Z,3.10
2022-12-16T01:26:33.611Z,3.38
2022-12-16T01:30:36.781Z,3.00
2022-12-16T01:34:39.995Z,2.60
2022-12-16T01:38:45.077Z,3.35
2022-12-16T01:42:50.891Z,3.38
2022-12-16T01:46:57.689Z,2.80
2022-12-16T01:51:03.234Z,1.98
2022-12-16T01:55:11.037Z,3.33
2022-12-16T01:59:17.011Z,4.03
2022-12-16T02:03:20.693Z,3.25
2022-12-16T02:07:24.069Z,3.55
2022-12-16T02:11:43.307Z,4.30
2022-12-16T02:15:51.742Z,4.68
2022-12-16T02:20:23.975Z,4.13
2022-12-16T02:25:15.989Z,3.92
2022-12-16T02:29:48.015Z,3.85
2022-12-16T02:34:10.278Z,3.72
2022-12-16T02:38:21.065Z,3.53
2022-12-16T02:42:30.482Z,3.33
2022-12-16T02:46:34.548Z,3.45
2022-12-16T02:50:42.327Z,3.50
2022-12-16T02:54:45.636Z,3.40
2022-12-16T02:58:53.497Z,3.33
2022-12-16T03:03:00.084Z,3.25
2022-12-16T03:07:05.926Z,3.13
2022-12-16T03:11:09.496Z,3.55
2022-12-16T03:15:16.998Z,2.92
2022-12-16T03:19:21.327Z,3.38
2022-12-16T03:23:29.414Z,3.00
2022-12-16T03:27:37.338Z,2.97
2022-12-16T03:31:44.213Z,3.70
2022-12-16T03:35:51.192Z,3.22
2022-12-16T03:39:58.082Z,3.38
2022-12-16T03:44:02.110Z,3.92
2022-12-16T03:48:08.655Z,3.53
2022-12-16T03:52:11.939Z,3.13
2022-12-16T03:56:17.045Z,3.50
2022-12-16T04:00:20.967Z,3.72
2022-12-16T04:04:25.337Z,4.10
2022-12-16T04:08:28.693Z,3.00
2022-12-16T04:12:51.440Z,3.95
2022-12-16T04:17:12.273Z,3.15
2022-12-16T04:25:32.641Z,3.10
2022-12-16T04:34:18.857Z,3.35
2022-12-16T04:38:39.545Z,3.67
2022-12-16T04:43:00.006Z,3.30
2022-12-16T04:55:44.986Z,3.65
2022-12-16T05:00:05.185Z,3.80
2022-12-16T05:08:42.120Z,3.90
2022-12-16T05:13:07.121Z,3.67
2022-12-16T05:17:28.323Z,4.10
2022-12-16T05:21:48.566Z,4.00
2022-12-16T06:08:57.377Z,4.93
2022-12-16T08:13:40.083Z,10.85
2022-12-16T08:18:01.614Z,12.38
2022-12-16T08:22:22.136Z,12.95
2022-12-16T08:26:42.344Z,11.68
2022-12-16T08:31:08.882Z,11.27
2022-12-16T08:35:29.494Z,12.27
2022-12-16T08:40:10.665Z,17.20
2022-12-16T08:44:30.305Z,16.75
2022-12-16T08:48:52.010Z,17.35
2022-12-16T08:53:12.127Z,18.08
2022-12-16T08:57:32.691Z,15.35
2022-12-16T09:01:53.026Z,15.35
2022-12-16T09:06:18.262Z,14.80
2022-12-16T09:10:40.594Z,15.45
2022-12-16T09:15:01.070Z,14.23
2022-12-16T09:19:21.674Z,12.73
2022-12-16T09:23:43.363Z,13.70
2022-12-16T09:28:18.186Z,15.77
2022-12-16T09:32:34.962Z,17.38
2022-12-16T09:36:55.270Z,14.90
2022-12-16T09:41:18.036Z,16.65
2022-12-16T09:45:45.002Z,18.52
2022-12-16T09:50:07.174Z,20.95
2022-12-16T09:54:30.960Z,18.73
2022-12-16T09:58:56.607Z,17.52
2022-12-16T10:03:17.841Z,14.88
2022-12-16T10:07:40.221Z,10.90
2022-12-16T10:12:06.611Z,10.55
2022-12-16T10:16:42.431Z,9.23
2022-12-16T10:21:05.183Z,9.77
2022-12-16T10:25:30.571Z,9.85
2022-12-16T10:29:55.000Z,10.82
2022-12-16T10:34:17.924Z,9.27
2022-12-16T10:38:40.724Z,10.88
2022-12-16T10:43:20.966Z,10.88
2022-12-16T10:47:42.787Z,9.93
2022-12-16T10:52:09.250Z,8.85
2022-12-16T10:56:43.069Z,9.35
2022-12-16T11:01:05.610Z,7.70
2022-12-16T11:05:42.035Z,7.22
2022-12-16T11:10:03.801Z,6.70
2022-12-16T11:14:34.921Z,6.47
2022-12-16T11:19:07.694Z,6.50
2022-12-16T11:23:37.640Z,8.45
2022-12-16T11:27:59.285Z,6.45
2022-12-16T11:32:22.190Z,6.68
2022-12-16T11:36:43.209Z,6.32
2022-12-16T11:41:03.302Z,6.35
2022-12-16T11:45:31.690Z,6.30
2022-12-16T11:55:27.629Z,4.18
2022-12-16T12:00:01.512Z,4.30
2022-12-16T12:04:23.491Z,3.65
2022-12-16T12:08:50.376Z,3.35
2022-12-16T12:13:15.519Z,3.50
2022-12-16T12:17:43.586Z,3.50
2022-12-16T12:22:20.271Z,3.20
2022-12-16T12:26:44.158Z,2.58
2022-12-16T12:31:09.117Z,2.35
2022-12-16T12:35:39.912Z,1.80
2022-12-16T12:40:04.677Z,2.42
2022-12-16T12:44:37.052Z,2.17
2022-12-16T12:49:13.440Z,2.38
2022-12-16T12:53:42.185Z,2.50
2022-12-16T12:58:05.587Z,2.80
2022-12-16T13:02:30.889Z,2.47
2022-12-16T13:06:53.372Z,2.72
2022-12-16T13:11:35.008Z,2.50
2022-12-16T13:15:58.311Z,2.58
2022-12-16T13:20:18.957Z,2.55
2022-12-16T13:24:39.964Z,2.92
2022-12-16T13:29:00.815Z,2.58
2022-12-16T13:33:25.774Z,2.53
2022-12-16T13:37:46.940Z,3.30
2022-12-16T13:42:10.101Z,1.85
2022-12-16T13:46:35.638Z,1.58
2022-12-16T13:50:59.061Z,1.20
2022-12-16T13:55:32.246Z,1.13
2022-12-16T13:59:56.092Z,0.90
2022-12-16T14:04:18.265Z,1.30
2022-12-16T14:08:41.783Z,1.23
2022-12-16T14:13:14.656Z,1.30
2022-12-16T14:17:37.374Z,1.10
2022-12-16T14:22:10.276Z,1.00
2022-12-16T14:26:33.033Z,1.10
2022-12-16T14:30:53.185Z,0.95
2022-12-16T14:35:19.735Z,0.95
2022-12-16T14:39:49.028Z,1.10
2022-12-16T14:44:10.815Z,0.75
2022-12-16T14:48:42.094Z,1.23
2022-12-16T14:53:22.252Z,0.98
2022-12-16T14:57:43.291Z,1.20
2022-12-16T15:02:05.811Z,1.10
2022-12-16T15:06:31.216Z,1.10
2022-12-16T15:10:52.146Z,1.40
2022-12-16T15:15:15.156Z,1.10
2022-12-16T15:19:39.055Z,1.52
2022-12-16T15:24:00.932Z,1.50
2022-12-16T15:28:32.512Z,1.20
2022-12-16T15:32:54.388Z,1.42
2022-12-16T15:37:15.846Z,1.75
2022-12-16T15:41:40.002Z,1.10
2022-12-16T15:46:07.228Z,1.40
2022-12-16T15:50:30.960Z,1.33
2022-12-16T15:54:53.128Z,1.20
2022-12-16T15:59:33.139Z,1.77
2022-12-16T16:03:53.305Z,1.40
2022-12-16T16:08:13.560Z,1.20
2022-12-16T16:12:36.907Z,1.45
2022-12-16T16:16:57.108Z,2.00
2022-12-16T16:21:17.192Z,1.63
2022-12-16T16:25:37.348Z,1.83
2022-12-16T16:29:59.069Z,1.90
2022-12-16T16:34:19.135Z,1.48
2022-12-16T16:38:39.398Z,1.63
2022-12-16T16:42:59.934Z,1.65
2022-12-16T16:47:21.955Z,1.90
2022-12-16T16:51:42.073Z,2.40
2022-12-16T16:56:02.626Z,2.38
2022-12-16T17:00:24.185Z,3.60
2022-12-16T17:04:45.958Z,3.88
2022-12-16T17:09:06.511Z,3.33
2022-12-16T17:13:27.919Z,4.28
2022-12-16T17:17:59.831Z,4.68
2022-12-16T17:22:21.748Z,6.22
2022-12-16T17:26:42.418Z,6.72
2022-12-16T17:31:03.369Z,8.57
2022-12-16T17:35:24.402Z,7.53
2022-12-16T17:39:46.239Z,8.45
2022-12-16T17:44:06.406Z,6.55
2022-12-16T17:48:27.169Z,7.45
2022-12-16T17:52:47.347Z,7.43
2022-12-16T17:57:09.359Z,7.28
2022-12-16T18:01:29.873Z,7.70
2022-12-16T18:05:50.403Z,6.03
2022-12-16T18:10:10.802Z,5.25
2022-12-16T18:14:32.865Z,5.70
2022-12-16T18:18:53.872Z,5.93
2022-12-16T18:23:17.611Z,5.60
2022-12-16T18:27:37.970Z,6.70
2022-12-16T18:32:01.223Z,6.88
2022-12-16T18:36:22.063Z,6.78
2022-12-16T18:40:42.297Z,7.70
2022-12-16T18:45:02.671Z,8.45
2022-12-16T18:49:25.225Z,8.48
2022-12-16T18:53:46.280Z,7.90
2022-12-16T18:58:27.533Z,7.35
2022-12-16T19:02:48.784Z,6.65
2022-12-16T19:07:11.061Z,7.15
2022-12-16T19:11:31.394Z,6.63
2022-12-16T19:15:52.580Z,8.25
2022-12-16T19:20:09.635Z,9.05
2022-12-16T19:24:31.734Z,7.68
2022-12-16T19:28:53.241Z,8.02
2022-12-16T19:33:17.526Z,8.20
2022-12-16T19:37:38.122Z,7.93
2022-12-16T19:42:00.392Z,9.93
2022-12-16T19:46:21.159Z,8.60
2022-12-16T19:50:41.709Z,9.48
2022-12-16T19:55:03.255Z,8.45
2022-12-16T19:59:27.482Z,8.77
2022-12-16T20:03:48.779Z,8.10
2022-12-16T20:08:10.136Z,8.45
2022-12-16T20:12:31.004Z,7.88
2022-12-16T20:16:52.943Z,9.18
2022-12-16T20:21:14.246Z,8.15
2022-12-16T20:25:34.683Z,10.45
2022-12-16T20:29:56.447Z,11.95
2022-12-16T20:34:18.697Z,12.70
2022-12-16T20:38:39.356Z,13.57
2022-12-16T20:42:59.851Z,12.70
2022-12-16T20:47:20.822Z,11.43
2022-12-16T20:51:43.123Z,10.95
2022-12-16T20:56:03.881Z,10.52
2022-12-16T21:00:25.584Z,9.90
2022-12-16T21:04:46.644Z,9.80
2022-12-16T21:09:07.494Z,9.25
2022-12-16T21:13:29.137Z,10.40
2022-12-16T21:17:49.775Z,8.82
2022-12-16T21:22:10.964Z,9.10
2022-12-16T21:26:33.120Z,8.05
2022-12-16T21:30:53.847Z,8.50
2022-12-16T21:35:14.976Z,7.78
2022-12-16T21:39:40.775Z,8.70
2022-12-16T21:44:01.937Z,10.68
2022-12-16T21:48:22.405Z,9.18
2022-12-16T21:52:39.786Z,7.85
2022-12-16T21:57:00.803Z,10.15
2022-12-16T22:01:23.400Z,8.32
2022-12-16T22:05:43.946Z,10.20
2022-12-16T22:10:05.714Z,10.52
2022-12-16T22:14:26.152Z,9.40
2022-12-16T22:18:48.246Z,11.15
2022-12-16T22:23:08.971Z,9.00
2022-12-16T22:27:31.035Z,10.88
2022-12-16T22:36:20.980Z,9.10
2022-12-16T22:40:41.537Z,9.50
2022-12-16T22:49:30.014Z,9.00
2022-12-16T22:53:52.247Z,9.23
2022-12-16T22:58:13.286Z,9.52
2022-12-16T23:07:10.293Z,7.28
2022-12-16T23:11:38.588Z,8.85
2022-12-16T23:16:15.420Z,8.63
2022-12-16T23:20:36.417Z,8.73
2022-12-16T23:24:57.362Z,7.88
2022-12-16T23:29:19.511Z,8.05
2022-12-16T23:33:40.182Z,8.60
2022-12-16T23:38:06.602Z,7.63
2022-12-16T23:42:27.873Z,7.53
2022-12-16T23:46:50.577Z,7.93
2022-12-16T23:51:12.128Z,7.40
2022-12-16T23:55:33.894Z,6.97
2022-12-16T23:59:54.652Z,7.65
